Time;durP1;ratioP1;P1;durP2;ratioP2;P2;SDS_P1;SDS_P2;PMS_P1;PMS_P2;Temp;Humidity;BMP_temperature;BMP_pressure;BME280_temperature;BME280_humidity;BME280_pressure;Samples;Min_cycle;Max_cycle;Signal;HPM_P1;HPM_P2
2023/06/16 00:00:38;;;;;;;8.30;5.75;;;;;;;19.51;75.29;98807.41;5062003;28;20020;-93
2023/06/16 00:03:05;;;;;;;8.63;5.57;;;;;;;19.59;75.00;98817.41;5031098;28;20470;-94
2023/06/16 00:05:30;;;;;;;8.95;6.05;;;;;;;19.58;74.87;98817.75;5062729;28;20108;-93
2023/06/16 00:07:59;;;;;;;9.88;6.32;;;;;;;19.65;74.65;98808.97;5046992;28;20605;-93
2023/06/16 00:10:24;;;;;;;11.27;6.45;;;;;;;19.70;74.88;98806.84;5061971;28;20025;-93
2023/06/16 00:12:50;;;;;;;11.68;6.35;;;;;;;19.80;74.37;98802.84;5062906;28;20032;-94
2023/06/16 00:15:15;;;;;;;9.65;5.70;;;;;;;19.83;74.39;98810.34;5062179;28;20043;-93
2023/06/16 00:17:44;;;;;;;11.02;6.05;;;;;;;19.88;74.15;98810.13;5030115;28;20025;-93
2023/06/16 00:20:11;;;;;;;8.95;6.05;;;;;;;19.95;74.00;98804.06;5060648;28;20031;-93
2023/06/16 00:22:36;;;;;;;7.65;5.50;;;;;;;20.01;73.56;98801.91;5046413;28;20053;-94
2023/06/16 00:25:02;;;;;;;6.60;5.65;;;;;;;20.02;73.38;98787.09;5062627;28;20093;-93
2023/06/16 00:27:27;;;;;;;7.25;5.50;;;;;;;20.16;72.88;98791.03;5029798;28;20025;-93
2023/06/16 00:29:53;;;;;;;9.32;6.70;;;;;;;20.08;73.77;98786.50;5045507;28;20024;-93
2023/06/16 00:32:18;;;;;;;13.80;7.65;;;;;;;19.98;74.21;98786.97;5045523;28;20021;-93
2023/06/16 00:34:45;;;;;;;8.10;5.88;;;;;;;19.90;74.52;98786.00;5029731;28;20035;-94
2023/06/16 00:37:11;;;;;;;13.15;6.60;;;;;;;19.81;74.55;98782.56;5028434;28;20031;-93
2023/06/16 00:39:36;;;;;;;7.45;5.28;;;;;;;19.75;74.61;98784.75;5045317;28;20021;-93
2023/06/16 00:42:02;;;;;;;7.22;5.35;;;;;;;19.85;74.03;98788.94;5062938;28;20027;-93
2023/06/16 00:44:27;;;;;;;5.93;5.07;;;;;;;19.98;73.50;98785.06;5029538;28;20170;-93
2023/06/16 00:46:52;;;;;;;7.93;5.10;;;;;;;19.93;74.46;98788.03;5062318;28;20036;-94
2023/06/16 00:49:18;;;;;;;7.97;5.03;;;;;;;19.87;74.56;98783.94;5063047;28;20456;-92
2023/06/16 00:51:43;;;;;;;7.57;5.10;;;;;;;19.81;74.36;98762.66;5062145;28;20028;-94
2023/06/16 00:54:12;;;;;;;9.80;5.97;;;;;;;19.84;74.51;98770.97;5062125;28;20028;-93
2023/06/16 00:56:38;;;;;;;8.18;5.35;;;;;;;19.90;74.61;98769.59;5027925;28;20081;-93
2023/06/16 00:59:05;;;;;;;9.93;5.28;;;;;;;19.87;74.53;98762.06;5029261;28;20056;-94
2023/06/16 01:01:30;;;;;;;9.27;5.28;;;;;;;19.88;74.42;98750.03;5061501;28;20029;-93
2023/06/16 01:03:57;;;;;;;9.35;5.15;;;;;;;19.88;74.06;98739.09;5028372;28;20025;-93
2023/06/16 01:06:41;;;;;;;8.27;5.38;;;;;;;20.01;74.43;98761.72;5061158;28;20020;-93
2023/06/16 01:09:06;;;;;;;9.00;5.68;;;;;;;19.84;74.94;98756.50;5022570;28;20035;-93
2023/06/16 01:11:38;;;;;;;12.98;6.00;;;;;;;19.76;74.93;98750.03;5061385;28;20028;-93
2023/06/16 01:14:10;;;;;;;8.02;5.53;;;;;;;19.72;75.16;98751.88;5062783;28;20060;-93
2023/06/16 01:16:36;;;;;;;7.28;5.05;;;;;;;19.72;75.30;98740.94;5029647;28;20017;-93
2023/06/16 01:19:08;;;;;;;7.72;5.15;;;;;;;19.75;75.48;98740.25;5028577;28;20032;-94
2023/06/16 01:21:39;;;;;;;9.95;5.35;;;;;;;19.77;75.00;98748.91;5029335;28;20030;-94
2023/06/16 01:24:05;;;;;;;;;;;;;;;19.61;75.64;98737.88;5045018;28;20053;-93
2023/06/16 01:26:31;;;;;;;11.45;5.70;;;;;;;19.53;75.63;98739.59;5060434;28;20382;-94
2023/06/16 01:28:59;;;;;;;8.82;5.20;;;;;;;19.55;75.98;98739.25;5029186;28;20040;-94
2023/06/16 01:31:24;;;;;;;8.77;5.28;;;;;;;19.59;75.02;98735.47;5061359;28;20031;-93
2023/06/16 01:33:50;;;;;;;8.88;5.50;;;;;;;19.66;75.04;98728.63;5044899;28;20017;-93
2023/06/16 01:36:15;;;;;;;10.70;5.50;;;;;;;19.63;75.21;98734.78;5044673;28;20004;-93
2023/06/16 01:38:41;;;;;;;9.13;5.55;;;;;;;19.64;75.12;98728.97;5027868;28;20020;-94
2023/06/16 01:41:07;;;;;;;7.05;5.30;;;;;;;19.77;74.63;98730.56;5043617;28;20111;-93
2023/06/16 01:43:33;;;;;;;6.30;5.28;;;;;;;19.73;74.92;98721.47;5062167;28;20115;-94
2023/06/16 01:45:58;;;;;;;7.50;5.35;;;;;;;19.70;74.83;98715.88;5060354;28;20410;-94
2023/06/16 01:48:24;;;;;;;7.30;5.00;;;;;;;19.69;75.48;98722.47;5043448;28;20085;-93
2023/06/16 01:50:50;;;;;;;9.07;5.53;;;;;;;19.47;75.62;98707.41;5043547;28;20028;-94
2023/06/16 01:53:15;;;;;;;7.80;5.78;;;;;;;19.61;75.42;98723.41;5061780;28;20058;-93
2023/06/16 01:55:46;;;;;;;10.73;5.20;;;;;;;19.54;76.00;98729.44;5044812;28;20032;-93
2023/06/16 01:58:12;;;;;;;8.30;5.28;;;;;;;19.55;76.04;98728.31;5027506;28;20013;-93
2023/06/16 02:00:40;;;;;;;8.50;5.55;;;;;;;19.65;75.66;98732.50;5044628;28;20505;-93
2023/06/16 02:03:15;;;;;;;8.05;5.35;;;;;;;19.47;75.85;98715.59;5027539;28;20025;-94
2023/06/16 02:05:43;;;;;;;7.65;5.32;;;;;;;19.57;76.03;98726.84;5059883;28;20021;-93
2023/06/16 02:08:09;;;;;;;8.80;5.10;;;;;;;19.61;75.91;98734.31;5059723;28;20082;-94
2023/06/16 02:10:34;;;;;;;8.70;5.35;;;;;;;19.52;75.95;98712.63;5044926;28;20028;-93
2023/06/16 02:13:00;;;;;;;12.80;4.97;;;;;;;19.53;76.51;98722.41;5027274;28;20471;-94
2023/06/16 02:15:27;;;;;;;6.82;5.05;;;;;;;19.51;77.40;98722.75;5044319;28;20028;-93
2023/06/16 02:17:53;;;;;;;9.23;5.47;;;;;;;19.43;77.20;98703.78;5043525;28;20020;-93
2023/06/16 02:20:18;;;;;;;8.40;5.10;;;;;;;19.56;76.23;98705.31;5043761;28;20020;-94
2023/06/16 02:22:44;;;;;;;7.65;5.20;;;;;;;19.45;77.35;98693.28;5044023;28;20072;-94
2023/06/16 02:25:09;;;;;;;7.57;5.53;;;;;;;19.55;76.54;98714.66;5059922;28;20036;-93
2023/06/16 02:27:35;;;;;;;6.50;5.03;;;;;;;19.42;77.44;98713.09;5059513;28;20525;-93
2023/06/16 02:30:00;;;;;;;7.93;4.93;;;;;;;19.39;76.65;98698.97;5027147;28;20024;-94
2023/06/16 02:32:26;;;;;;;7.97;4.88;;;;;;;19.39;76.27;98700.91;5043835;28;20028;-94
2023/06/16 02:34:53;;;;;;;9.13;5.07;;;;;;;19.50;75.82;98702.03;5060722;28;20047;-94
2023/06/16 02:37:20;;;;;;;6.47;4.97;;;;;;;19.62;75.19;98709.41;5026740;28;20107;-93
2023/06/16 02:39:46;;;;;;;8.57;4.53;;;;;;;19.66;75.07;98710.31;5027623;28;20020;-93
2023/06/16 02:42:12;;;;;;;7.22;4.78;;;;;;;19.64;75.07;98709.84;5059970;28;20025;-93
2023/06/16 02:44:37;;;;;;;7.18;4.32;;;;;;;19.49;74.99;98716.84;5059791;28;20020;-94
2023/06/16 02:47:03;;;;;;;7.25;4.43;;;;;;;19.54;74.91;98724.00;5059566;28;20035;-93
2023/06/16 02:49:30;;;;;;;7.18;4.43;;;;;;;19.58;74.69;98716.69;5059603;28;20028;-95
2023/06/16 02:51:56;;;;;;;6.13;4.55;;;;;;;19.74;73.95;98723.06;5060354;28;20100;-93
2023/06/16 02:54:22;;;;;;;7.53;4.40;;;;;;;19.78;73.46;98729.44;5059603;28;20024;-93
2023/06/16 02:56:47;;;;;;;6.38;4.50;;;;;;;19.83;73.25;98727.59;5042896;28;20038;-94
2023/06/16 02:59:15;;;;;;;13.57;4.90;;;;;;;19.88;73.58;98741.81;5060230;28;20020;-93
2023/06/16 03:01:40;;;;;;;7.32;4.88;;;;;;;19.91;73.50;98740.31;5059690;28;20035;-93
2023/06/16 03:04:06;;;;;;;7.88;4.68;;;;;;;19.90;74.05;98741.47;5059965;28;20016;-94
2023/06/16 03:06:34;;;;;;;8.48;4.75;;;;;;;19.74;73.98;98735.94;5041653;28;20020;-94
2023/06/16 03:09:00;;;;;;;6.88;4.38;;;;;;;19.69;74.03;98733.41;5059009;28;20021;-93
2023/06/16 03:11:25;;;;;;;6.97;3.67;;;;;;;19.63;73.51;98734.78;5043964;28;20028;-93
2023/06/16 03:13:51;;;;;;;8.75;4.30;;;;;;;19.67;73.14;98728.31;5043845;28;20036;-93
2023/06/16 03:16:17;;;;;;;5.13;3.95;;;;;;;19.56;73.09;98736.16;5026064;28;20032;-95
2023/06/16 03:18:43;;;;;;;6.15;3.97;;;;;;;19.77;72.77;98746.16;5028014;28;20020;-93
2023/06/16 03:21:08;;;;;;;8.95;4.40;;;;;;;19.85;72.20;98745.22;5025742;28;20045;-94
2023/06/16 03:23:34;;;;;;;6.20;3.47;;;;;;;19.93;72.19;98747.03;5026663;28;20052;-93
2023/06/16 03:25:59;;;;;;;6.22;4.22;;;;;;;19.94;72.29;98748.63;5027157;28;20024;-94
2023/06/16 03:28:25;;;;;;;8.30;4.55;;;;;;;19.94;68.92;98732.25;5059155;28;20403;-94
2023/06/16 03:30:52;;;;;;;10.20;4.43;;;;;;;20.04;65.64;98735.63;5026779;28;20028;-94
2023/06/16 03:33:19;;;;;;;6.45;3.70;;;;;;;20.10;62.07;98726.03;5059412;28;20088;-94
2023/06/16 03:35:44;;;;;;;10.75;4.72;;;;;;;20.06;64.59;98727.88;5026132;28;20024;-93
2023/06/16 03:38:10;;;;;;;6.50;3.30;;;;;;;20.09;62.01;98710.78;5058858;28;20021;-94
2023/06/16 03:40:35;;;;;;;9.27;4.43;;;;;;;20.02;63.14;98711.34;5026648;28;20410;-92
2023/06/16 03:43:02;;;;;;;9.75;3.78;;;;;;;20.04;63.35;98705.56;5057098;28;20052;-94
2023/06/16 03:45:27;;;;;;;8.10;3.60;;;;;;;20.02;62.86;98707.84;5027956;28;20028;-94
2023/06/16 03:47:53;;;;;;;9.32;3.55;;;;;;;20.28;61.84;98710.91;5028100;28;20469;-94
2023/06/16 03:50:18;;;;;;;4.80;3.10;;;;;;;20.36;60.91;98707.22;5027770;28;20036;-95
2023/06/16 03:52:53;;;;;;;5.35;3.15;;;;;;;20.46;59.45;98703.19;5026900;28;20024;-94
2023/06/16 03:55:19;;;;;;;4.18;2.67;;;;;;;20.63;58.95;98707.56;5026424;28;20050;-94
2023/06/16 03:57:44;;;;;;;5.20;3.05;;;;;;;20.69;58.76;98703.41;5059158;28;20115;-94
2023/06/16 05:38:09;;;;;;;8.13;3.40;;;;;;;20.44;60.95;98696.47;4877508;29;20228;-90
2023/06/16 05:44:14;;;;;;;3.67;2.90;;;;;;;20.50;59.32;98695.88;4784271;30;20040;-94
2023/06/16 05:46:40;;;;;;;9.60;5.43;;;;;;;20.63;59.55;98704.81;4764810;29;20043;-91
2023/06/16 05:49:29;;;;;;;14.02;3.10;;;;;;;20.61;59.07;98707.13;4837862;29;20046;-91
2023/06/16 05:52:15;;;;;;;17.30;11.40;;;;;;;20.93;59.54;98735.28;4840100;29;20046;-92
2023/06/16 05:54:41;;;;;;;6.53;3.53;;;;;;;20.85;60.59;98711.63;4849392;29;20036;-90
2023/06/16 05:58:05;;;;;;;6.70;3.63;;;;;;;20.84;60.84;98690.88;4909528;29;20100;-91
2023/06/16 06:00:43;;;;;;;5.30;3.35;;;;;;;20.91;60.66;98704.72;4834626;29;20099;-92
2023/06/16 06:03:33;;;;;;;;;;;;;;;;;;;;;
2023/06/16 06:06:03;;;;;;;5.25;2.85;;;;;;;21.13;59.08;98711.53;4893109;29;20123;-90
2023/06/16 06:08:32;;;;;;;8.27;3.40;;;;;;;21.14;59.19;98699.41;4877794;29;20055;-94
2023/06/16 06:11:01;;;;;;;7.60;3.13;;;;;;;21.63;59.60;98730.28;4894789;29;20108;-90
2023/06/16 06:13:29;;;;;;;5.78;3.15;;;;;;;21.61;55.02;98716.13;4897526;29;20039;-94
2023/06/16 06:15:55;;;;;;;8.10;2.60;;;;;;;21.78;56.72;98721.97;4893292;29;20044;-94
2023/06/16 06:18:29;;;;;;;13.55;3.72;;;;;;;22.11;56.19;98728.13;4878707;29;20081;-93
2023/06/16 06:20:55;;;;;;;9.27;2.40;;;;;;;22.21;54.79;98719.31;4903503;29;20115;-94
2023/06/16 06:23:20;;;;;;;6.22;2.85;;;;;;;22.29;54.70;98712.84;4877374;29;20083;-94
2023/06/16 06:25:48;;;;;;;5.07;2.78;;;;;;;22.24;54.26;98709.59;4878397;29;20488;-94
2023/06/16 06:28:14;;;;;;;4.95;2.90;;;;;;;22.48;54.11;98713.97;4886118;29;20016;-94
2023/06/16 06:30:39;;;;;;;18.08;13.45;;;;;;;22.43;54.66;98698.59;4892708;29;20036;-95
2023/06/16 06:33:05;;;;;;;10.75;4.75;;;;;;;22.62;54.45;98714.25;4893044;29;20060;-94
2023/06/16 06:36:09;;;;;;;5.88;3.58;;;;;;;22.70;54.96;98726.13;4878096;29;20040;-94
2023/06/16 06:42:22;;;;;;;8.35;3.35;;;;;;;22.67;55.02;98699.41;4935125;29;20035;-95
2023/06/16 06:44:51;;;;;;;7.40;3.25;;;;;;;22.96;55.44;98695.97;4912895;29;20028;-95
2023/06/16 06:47:21;;;;;;;6.90;3.17;;;;;;;23.13;54.63;98700.19;4887801;29;20023;-91
2023/06/16 06:49:48;;;;;;;5.68;3.45;;;;;;;23.05;53.89;98693.00;4902550;29;20024;-94
2023/06/16 06:52:17;;;;;;;3.42;2.08;;;;;;;23.25;53.20;98721.16;4896277;29;20030;-92
2023/06/16 06:54:43;;;;;;;6.15;3.28;;;;;;;23.14;53.80;98685.31;4884520;29;20028;-95
2023/06/16 06:57:08;;;;;;;4.45;3.00;;;;;;;23.28;52.51;98681.19;4886484;29;20048;-92
2023/06/16 06:59:34;;;;;;;6.43;2.60;;;;;;;23.22;52.86;98675.19;4892816;29;20052;-92
2023/06/16 07:02:02;;;;;;;13.38;6.40;;;;;;;23.20;52.86;98691.25;4897108;29;20051;-94
2023/06/16 07:04:28;;;;;;;5.47;2.75;;;;;;;23.38;52.89;98683.28;4887264;29;20024;-93
2023/06/16 07:06:56;;;;;;;8.00;3.50;;;;;;;23.33;53.43;98678.91;4906791;29;20526;-94
2023/06/16 07:09:34;;;;;;;6.75;2.75;;;;;;;23.58;53.39;98709.47;4876081;29;20020;-93
2023/06/16 07:12:00;;;;;;;4.07;2.85;;;;;;;23.40;53.36;98680.97;4896809;29;20571;-95
2023/06/16 07:14:26;;;;;;;6.25;2.92;;;;;;;23.64;53.26;98682.47;4894334;29;20092;-93
2023/06/16 07:16:52;;;;;;;9.77;2.63;;;;;;;23.90;52.15;98695.38;4881156;29;20047;-95
2023/06/16 07:19:40;;;;;;;7.10;3.03;;;;;;;23.93;52.70;98669.88;4883341;29;20027;-93
2023/06/16 07:22:13;;;;;;;4.78;2.63;;;;;;;24.28;51.30;98687.16;4884434;29;20396;-94
2023/06/16 07:24:39;;;;;;;6.60;3.38;;;;;;;24.33;50.63;98681.31;4894688;29;20035;-94
2023/06/16 07:30:52;;;;;;;18.10;11.98;;;;;;;24.27;48.32;98669.84;4906937;29;20035;-94
2023/06/16 07:33:27;;;;;;;3.95;2.28;;;;;;;24.36;47.55;98681.34;4918086;29;20514;-92
2023/06/16 07:36:02;;;;;;;3.53;1.80;;;;;;;24.46;47.79;98692.84;4904178;29;20027;-86
2023/06/16 07:39:07;;;;;;;6.55;2.40;;;;;;;24.48;48.28;98662.97;4888623;29;20023;-89
2023/06/16 07:42:10;;;;;;;5.38;2.03;;;;;;;24.68;47.50;98686.41;4912798;29;20023;-89
2023/06/16 07:45:05;;;;;;;2.50;1.88;;;;;;;24.59;46.76;98683.16;4840973;29;20078;-89
2023/06/16 07:47:34;;;;;;;7.07;2.28;;;;;;;24.59;46.89;98672.13;4817001;29;20035;-95
2023/06/16 07:53:42;;;;;;;5.47;2.10;;;;;;;24.79;46.20;98684.50;4798787;29;20072;-96
2023/06/16 07:56:11;;;;;;;5.75;1.80;;;;;;;24.90;46.32;98709.41;4837099;29;20041;-95
2023/06/16 07:58:41;;;;;;;4.97;3.00;;;;;;;24.90;46.20;98697.56;4859119;29;20036;-95
2023/06/16 08:01:07;;;;;;;5.18;2.30;;;;;;;24.74;45.98;98673.06;4838927;29;20030;-92
2023/06/16 08:03:33;;;;;;;4.43;2.00;;;;;;;24.72;45.25;98684.47;4825631;29;20036;-93
2023/06/16 08:05:59;;;;;;;4.72;1.80;;;;;;;24.90;44.15;98684.63;4826790;29;20045;-93
2023/06/16 08:08:32;;;;;;;3.72;1.85;;;;;;;24.80;43.68;98686.09;4831327;29;20053;-95
2023/06/16 08:11:11;;;;;;;;;;;;;;;;;;;;;
2023/06/16 08:13:48;;;;;;;4.22;1.60;;;;;;;24.85;44.84;98673.16;4863122;29;20111;-94
2023/06/16 08:16:50;;;;;;;4.90;1.90;;;;;;;25.12;44.78;98698.53;4844368;29;20041;-95
2023/06/16 08:19:16;;;;;;;3.17;1.58;;;;;;;24.96;44.31;98669.28;4862525;29;20056;-93
2023/06/16 08:21:42;;;;;;;3.20;1.98;;;;;;;25.02;43.32;98702.78;4847794;29;20101;-94
2023/06/16 08:24:07;;;;;;;3.85;1.77;;;;;;;24.89;43.68;98677.53;4862008;29;20085;-94
2023/06/16 08:26:33;;;;;;;3.47;1.80;;;;;;;25.13;42.02;98689.09;4860294;29;20025;-92
2023/06/16 08:29:33;;;;;;;2.30;1.73;;;;;;;25.09;41.61;98678.06;4846234;29;20095;-93
2023/06/16 08:32:06;;;;;;;5.55;3.22;;;;;;;25.54;40.32;98687.00;4862089;29;20128;-95
2023/06/16 08:34:52;;;;;;;3.13;2.03;;;;;;;25.40;41.87;98675.91;4880644;29;20120;-94
2023/06/16 08:37:18;;;;;;;3.88;2.20;;;;;;;25.83;41.34;98686.38;4892667;29;20023;-93
2023/06/16 08:39:52;;;;;;;5.43;2.80;;;;;;;25.61;42.49;98670.53;4865813;29;20033;-93
2023/06/16 08:42:20;;;;;;;6.32;2.67;;;;;;;25.60;41.95;98671.69;4880882;29;20037;-94
2023/06/16 08:44:48;;;;;;;8.65;3.97;;;;;;;25.79;42.66;98681.63;4862471;29;20052;-95
2023/06/16 08:47:13;;;;;;;4.68;2.25;;;;;;;26.07;41.23;98674.66;4894639;29;20032;-95
2023/06/16 08:49:41;;;;;;;7.70;2.95;;;;;;;26.36;41.54;98681.03;4879706;29;20055;-93
2023/06/16 08:52:10;;;;;;;6.30;1.90;;;;;;;26.36;41.39;98681.03;4878795;29;20032;-93
2023/06/16 08:54:38;;;;;;;4.47;2.05;;;;;;;26.44;40.91;98681.03;4879070;29;20074;-93
2023/06/16 08:57:06;;;;;;;3.22;2.05;;;;;;;26.56;41.38;98689.75;4881342;29;20039;-95
2023/06/16 08:59:37;;;;;;;3.67;1.92;;;;;;;26.49;41.12;98681.44;4881817;29;20094;-95
2023/06/16 09:02:06;;;;;;;4.03;1.88;;;;;;;26.68;41.44;98687.81;4886196;29;20086;-95
2023/06/16 09:04:33;;;;;;;4.90;2.30;;;;;;;26.67;41.66;98664.16;4921880;29;20031;-93
2023/06/16 09:06:59;;;;;;;5.70;2.25;;;;;;;26.74;41.34;98664.13;4922416;29;20039;-94
2023/06/16 09:09:26;;;;;;;3.58;2.58;;;;;;;27.15;40.80;98689.38;4918974;29;20041;-93
2023/06/16 09:12:47;;;;;;;4.95;2.20;;;;;;;27.37;41.13;98679.09;4926161;28;20023;-94
2023/06/16 09:15:20;;;;;;;4.53;2.70;;;;;;;27.19;41.31;98673.56;4920029;29;20062;-94
2023/06/16 09:17:47;;;;;;;2.17;1.40;;;;;;;27.08;40.50;98669.25;4896349;29;20128;-94
2023/06/16 09:20:16;;;;;;;7.00;1.90;;;;;;;27.14;40.13;98673.97;4880735;29;20051;-94
2023/06/16 09:23:00;;;;;;;4.07;1.85;;;;;;;27.17;41.09;98662.13;4883539;29;20040;-93
2023/06/16 09:25:26;;;;;;;3.55;2.30;;;;;;;27.20;40.88;98666.84;4875355;29;20036;-90
2023/06/16 09:27:53;;;;;;;3.53;2.10;;;;;;;27.20;41.13;98641.97;4881261;29;20036;-88
2023/06/16 09:30:35;;;;;;;2.50;1.50;;;;;;;27.33;40.46;98650.69;4873430;29;20511;-89
2023/06/16 09:33:01;;;;;;;4.13;1.92;;;;;;;27.54;40.62;98655.34;4902155;29;20123;-88
2023/06/16 09:35:28;;;;;;;3.72;2.10;;;;;;;27.65;40.79;98652.53;4879328;29;20036;-89
2023/06/16 09:37:57;;;;;;;5.13;1.65;;;;;;;27.86;39.56;98648.91;4875139;29;20477;-91
2023/06/16 09:40:30;;;;;;;3.28;1.73;;;;;;;27.84;41.19;98631.13;4877280;29;20044;-94
2023/06/16 09:42:58;;;;;;;4.13;2.20;;;;;;;28.04;40.80;98635.00;4918003;29;20036;-93
2023/06/16 09:45:30;;;;;;;7.95;2.17;;;;;;;27.88;40.24;98641.00;4906466;29;20054;-94
2023/06/16 09:47:58;;;;;;;4.63;1.98;;;;;;;28.05;39.40;98641.31;4917671;29;20118;-93
2023/06/16 09:50:26;;;;;;;2.83;1.88;;;;;;;28.16;38.29;98637.28;4930870;29;20040;-93
2023/06/16 09:52:53;;;;;;;2.33;1.50;;;;;;;27.90;38.02;98660.75;4917340;29;20023;-93
2023/06/16 09:55:19;;;;;;;3.08;1.90;;;;;;;27.91;38.50;98636.63;4917274;29;20034;-95
2023/06/16 09:57:45;;;;;;;2.42;1.80;;;;;;;28.07;37.61;98642.47;4919036;29;20419;-95
2023/06/16 10:00:18;;;;;;;3.55;1.95;;;;;;;28.16;37.40;98640.06;4912835;29;20035;-93
2023/06/16 10:02:45;;;;;;;3.03;1.77;;;;;;;28.06;37.74;98651.97;4934241;29;20046;-94
2023/06/16 10:05:35;;;;;;;5.43;2.47;;;;;;;28.11;39.05;98656.31;4919041;29;20031;-94
2023/06/16 10:08:02;;;;;;;3.45;1.73;;;;;;;27.84;37.49;98623.59;4937194;29;20031;-94
2023/06/16 10:10:29;;;;;;;1.95;1.30;;;;;;;27.99;35.53;98640.94;4934108;28;20118;-93
2023/06/16 10:12:55;;;;;;;6.05;2.60;;;;;;;28.16;36.33;98645.59;4938483;29;20050;-96
2023/06/16 10:15:26;;;;;;;4.53;1.70;;;;;;;28.18;35.86;98642.41;4916687;29;20091;-96
2023/06/16 10:18:03;;;;;;;7.80;2.40;;;;;;;28.20;37.29;98621.44;4916392;29;20043;-95
2023/06/16 10:20:32;;;;;;;4.43;2.42;;;;;;;28.17;34.65;98629.78;4922323;29;20027;-95
2023/06/16 10:23:08;;;;;;;5.15;3.35;;;;;;;28.12;35.83;98632.94;4936839;29;20093;-95
2023/06/16 10:25:40;;;;;;;2.55;1.48;;;;;;;28.01;35.34;98614.44;4938795;29;20031;-94
2023/06/16 10:28:13;;;;;;;3.10;1.85;;;;;;;28.34;34.72;98648.22;4924719;29;20074;-95
2023/06/16 10:30:39;;;;;;;2.35;1.35;;;;;;;28.45;34.51;98648.16;4934248;29;20031;-85
2023/06/16 10:33:19;;;;;;;3.22;1.80;;;;;;;28.48;34.79;98629.94;4911269;29;20098;-88
2023/06/16 10:35:56;;;;;;;3.10;1.55;;;;;;;28.44;35.39;98629.19;4909827;29;20047;-89
2023/06/16 10:41:31;;;;;;;;;;;;;;;;;;;;;
2023/06/16 10:44:44;;;;;;;5.47;2.58;;;;;;;29.29;32.52;98632.44;4957907;29;20086;-96
2023/06/16 10:47:12;;;;;;;;;;;;;;;29.46;33.49;98638.97;4955576;29;20019;-96
2023/06/16 10:49:58;;;;;;;4.45;1.33;;;;;;;29.45;33.05;98606.88;4969585;28;19910;-96
2023/06/16 10:52:52;;;;;;;4.63;1.65;;;;;;;29.54;32.08;98621.03;4974269;28;20061;-95
2023/06/16 10:55:44;;;;;;;3.45;2.28;;;;;;;29.48;32.33;98631.78;4955432;29;20553;-96
2023/06/16 10:58:57;;;;;;;2.08;1.40;;;;;;;29.20;32.53;98610.75;4951816;28;20058;-96
2023/06/16 11:01:28;;;;;;;4.82;1.40;;;;;;;29.01;33.46;98609.31;4949786;29;20058;-95
2023/06/16 11:04:17;;;;;;;4.65;1.48;;;;;;;29.07;33.47;98613.19;4935036;29;20064;-95
2023/06/16 11:07:07;;;;;;;2.92;1.50;;;;;;;28.94;32.40;98640.66;4935729;29;20042;-95
2023/06/16 11:09:40;;;;;;;5.60;1.52;;;;;;;28.86;32.97;98613.44;4951859;29;20059;-96
2023/06/16 11:14:46;;;;;;;6.15;1.77;;;;;;;28.88;33.66;98622.91;4974474;23;20059;-94
2023/06/16 11:17:13;;;;;;;6.57;2.70;;;;;;;28.94;32.71;98601.06;4930090;29;20204;-95
2023/06/16 11:19:46;;;;;;;5.30;2.22;;;;;;;29.09;31.86;98612.78;4932443;29;20530;-96
2023/06/16 11:22:12;;;;;;;3.28;1.83;;;;;;;29.38;32.28;98602.19;4934294;29;20035;-96
2023/06/16 11:24:43;;;;;;;5.53;2.10;;;;;;;29.46;32.76;98622.31;4932340;28;20094;-96
2023/06/16 11:27:08;;;;;;;;;;;;;;;29.63;32.87;98624.09;4933195;29;20032;-95
2023/06/16 11:29:38;;;;;;;5.57;2.00;;;;;;;29.58;31.61;98610.69;4949586;29;19938;-96
2023/06/16 11:32:07;;;;;;;2.35;1.88;;;;;;;29.54;32.06;98599.63;4936942;29;20032;-96
2023/06/16 11:34:33;;;;;;;4.45;2.50;;;;;;;29.89;32.18;98610.72;4935426;29;20039;-96
2023/06/16 11:36:59;;;;;;;5.75;2.40;;;;;;;29.75;31.56;98593.03;4933890;29;20091;-96
2023/06/16 11:39:32;;;;;;;3.33;1.42;;;;;;;29.90;31.64;98606.72;4934708;29;20488;-96
2023/06/16 11:42:01;;;;;;;4.95;1.70;;;;;;;29.79;31.77;98579.13;4942418;29;20070;-95
2023/06/16 11:44:30;;;;;;;2.60;1.35;;;;;;;29.81;32.00;98590.59;4935827;29;20051;-95
2023/06/16 11:46:57;;;;;;;4.68;1.75;;;;;;;29.73;32.59;98578.78;4935855;29;20110;-95
2023/06/16 11:49:48;;;;;;;3.38;2.03;;;;;;;29.69;32.32;98583.56;4935078;29;20027;-96
2023/06/16 11:52:38;;;;;;;5.47;2.33;;;;;;;29.67;32.19;98571.31;4931014;28;20013;-95
2023/06/16 11:55:10;;;;;;;3.88;2.00;;;;;;;29.66;32.67;98580.88;4950975;29;20275;-96
2023/06/16 11:58:26;;;;;;;9.73;2.60;;;;;;;29.41;33.61;98571.66;4937126;29;20004;-95
2023/06/16 12:01:14;;;;;;;5.43;3.10;;;;;;;29.42;33.81;98569.66;4948493;29;20047;-94
2023/06/16 12:03:57;;;;;;;5.00;2.63;;;;;;;29.36;34.70;98572.09;4920462;29;20044;-94
2023/06/16 12:09:17;;;;;;;4.38;2.45;;;;;;;29.40;34.85;98589.47;5058517;23;20059;-95
2023/06/16 12:11:46;;;;;;;8.65;3.25;;;;;;;28.88;36.37;98558.38;4953479;28;20031;-93
2023/06/16 12:14:19;;;;;;;5.68;3.53;;;;;;;28.53;37.44;98563.84;4933605;29;20006;-93
2023/06/16 12:17:14;;;;;;;5.38;2.25;;;;;;;28.30;37.39;98553.34;4933503;29;20031;-94
2023/06/16 12:20:24;;;;;;;4.45;2.65;;;;;;;28.45;37.67;98578.91;4945955;29;20060;-93
2023/06/16 12:22:55;;;;;;;6.70;4.18;;;;;;;28.22;38.99;98549.03;4970121;28;20058;-95
2023/06/16 12:25:23;;;;;;;5.32;2.53;;;;;;;27.82;41.08;98546.53;4957353;28;20027;-95
2023/06/16 12:30:38;;;;;;;4.57;2.35;;;;;;;27.76;41.58;98544.59;5160202;23;20105;-92
2023/06/16 12:33:09;;;;;;;5.78;2.50;;;;;;;27.66;41.33;98553.75;4939374;28;20035;-93
2023/06/16 12:35:37;;;;;;;6.75;2.60;;;;;;;27.60;40.03;98537.59;4945927;28;20019;-96
2023/06/16 12:38:04;;;;;;;8.45;3.25;;;;;;;27.54;40.49;98546.72;4947224;28;20054;-94
2023/06/16 12:40:31;;;;;;;5.13;3.38;;;;;;;27.44;41.06;98533.72;4960572;28;20026;-94
2023/06/16 12:46:19;;;;;;;7.43;2.78;;;;;;;27.51;40.48;98520.63;4995843;28;20054;-96
2023/06/16 12:48:45;;;;;;;5.55;2.85;;;;;;;27.77;40.17;98518.53;4943403;28;20022;-94
2023/06/16 12:51:12;;;;;;;9.43;3.13;;;;;;;27.77;40.33;98515.75;4947824;28;20023;-96
2023/06/16 12:53:40;;;;;;;6.18;3.30;;;;;;;27.88;40.39;98516.50;4944931;28;20118;-94
2023/06/16 12:56:07;;;;;;;6.72;2.30;;;;;;;28.05;39.96;98520.31;4932891;29;20146;-94
2023/06/16 12:58:33;;;;;;;5.93;2.60;;;;;;;28.12;39.37;98522.22;4928193;28;20051;-95
2023/06/16 13:01:00;;;;;;;5.72;2.85;;;;;;;28.08;38.86;98513.97;4942650;28;20027;-95
2023/06/16 13:03:27;;;;;;;6.13;2.53;;;;;;;27.97;38.36;98519.59;4944489;28;20027;-95
2023/06/16 13:05:52;;;;;;;10.13;2.80;;;;;;;27.91;38.88;98503.81;4942791;28;20061;-94
2023/06/16 13:08:18;;;;;;;9.60;2.63;;;;;;;27.55;39.45;98490.97;4937341;28;20122;-96
2023/06/16 13:10:47;;;;;;;6.20;2.70;;;;;;;28.12;39.38;98523.03;4954438;28;20022;-96
2023/06/16 13:13:13;;;;;;;4.53;3.10;;;;;;;28.12;38.84;98505.63;4937136;28;20503;-93
2023/06/16 13:15:39;;;;;;;5.45;2.50;;;;;;;28.21;38.52;98508.72;4950500;28;20023;-96
2023/06/16 13:18:40;;;;;;;4.43;2.80;;;;;;;28.53;38.41;98510.44;4941400;28;20041;-93
2023/06/16 13:21:10;;;;;;;4.80;2.83;;;;;;;28.75;38.58;98520.09;4975856;28;20031;-96
2023/06/16 13:27:01;;;;;;;3.58;2.38;;;;;;;29.46;37.47;98503.84;4991971;28;20030;-95
2023/06/16 13:29:27;;;;;;;4.88;2.40;;;;;;;29.29;36.79;98508.41;4940831;28;20046;-94
2023/06/16 13:31:53;;;;;;;6.82;2.42;;;;;;;28.98;37.31;98518.66;4956862;28;20093;-94
2023/06/16 13:34:25;;;;;;;3.72;2.60;;;;;;;28.67;38.47;98506.75;4988870;28;20022;-90
2023/06/16 13:36:50;;;;;;;9.00;2.90;;;;;;;28.42;39.14;98505.75;4952591;28;20473;-91
2023/06/16 13:39:19;;;;;;;7.20;2.55;;;;;;;28.40;40.18;98505.38;4951721;28;20030;-93
2023/06/16 13:42:08;;;;;;;9.35;2.90;;;;;;;28.11;40.26;98504.84;4960777;28;20034;-91
2023/06/16 13:44:34;;;;;;;5.47;2.55;;;;;;;28.21;41.07;98512.28;4986617;28;20098;-92
2023/06/16 13:47:00;;;;;;;6.53;2.70;;;;;;;28.26;40.50;98515.81;4954268;28;20061;-90
2023/06/16 13:49:25;;;;;;;4.28;2.60;;;;;;;27.87;40.91;98509.41;4956049;28;20022;-91
2023/06/16 13:51:53;;;;;;;7.22;2.55;;;;;;;27.97;41.16;98516.84;4951232;28;20085;-92
2023/06/16 13:54:18;;;;;;;5.03;2.53;;;;;;;27.86;41.18;98521.63;4951741;28;20097;-90
2023/06/16 13:56:46;;;;;;;4.18;2.65;;;;;;;27.99;41.17;98517.22;4952996;28;20022;-93
2023/06/16 13:59:11;;;;;;;10.05;3.50;;;;;;;28.19;41.83;98514.66;4955874;28;20165;-92
2023/06/16 14:03:53;;;;;;;6.50;2.60;;;;;;;28.33;41.60;98510.22;4933776;27;5362678;-93
2023/06/16 14:06:18;;;;;;;5.65;2.90;;;;;;;28.64;40.72;98524.19;5048625;28;20448;-94